Time;durP1;ratioP1;P1;durP2;ratioP2;P2;SDS_P1;SDS_P2;PMS_P1;PMS_P2;Temp;Humidity;BMP_temperature;BMP_pressure;BME280_temperature;BME280_humidity;BME280_pressure;Samples;Min_cycle;Max_cycle;Signal;HPM_P1;HPM_P2
2022/01/07 00:02:19;;;;;;;6.20;1.98;;;11.30;74.80;;;;;;5014828;28;20505;-63
2022/01/07 00:04:45;;;;;;;9.20;2.03;;;11.30;75.60;;;;;;5014540;28;20014;-63
2022/01/07 00:07:10;;;;;;;7.07;2.40;;;11.30;73.40;;;;;;5014714;28;20360;-63
2022/01/07 00:09:36;;;;;;;8.93;2.40;;;11.30;73.20;;;;;;5014554;28;20029;-64
2022/01/07 00:12:04;;;;;;;5.30;2.00;;;11.30;73.50;;;;;;5014724;28;20026;-64
2022/01/07 00:14:30;;;;;;;6.57;2.20;;;11.20;74.00;;;;;;5014683;28;20084;-65
2022/01/07 00:16:56;;;;;;;8.88;2.72;;;11.20;74.10;;;;;;5014820;28;20037;-65
2022/01/07 00:19:21;;;;;;;5.18;1.70;;;11.10;73.80;;;;;;5014315;28;20030;-65
2022/01/07 00:21:47;;;;;;;5.53;2.00;;;11.10;74.40;;;;;;5014424;28;20464;-65
2022/01/07 00:24:12;;;;;;;5.55;2.08;;;11.20;75.60;;;;;;5013250;28;20061;-65
2022/01/07 00:26:38;;;;;;;6.18;2.28;;;11.20;75.20;;;;;;5014316;28;20022;-66
2022/01/07 00:29:04;;;;;;;5.60;2.80;;;11.10;75.60;;;;;;5014364;28;20100;-65
2022/01/07 00:31:29;;;;;;;9.35;2.38;;;11.10;75.20;;;;;;5014156;28;20456;-65
2022/01/07 00:33:55;;;;;;;3.70;2.13;;;11.10;75.60;;;;;;5013824;28;20030;-65
2022/01/07 00:36:20;;;;;;;8.02;2.00;;;11.00;76.00;;;;;;5014036;28;20048;-65
2022/01/07 00:38:46;;;;;;;8.68;2.30;;;11.00;76.10;;;;;;5014289;28;20032;-65
2022/01/07 00:41:11;;;;;;;4.65;2.60;;;11.00;76.50;;;;;;5014007;28;20464;-65
2022/01/07 00:43:37;;;;;;;9.63;2.47;;;11.00;76.30;;;;;;5013898;28;20049;-65
2022/01/07 00:46:02;;;;;;;7.25;2.65;;;11.00;76.60;;;;;;5013905;28;20073;-65
2022/01/07 00:48:28;;;;;;;7.40;2.20;;;11.00;77.40;;;;;;5013610;28;20049;-66
2022/01/07 00:50:54;;;;;;;5.75;1.98;;;11.00;76.70;;;;;;5013851;28;20026;-65
2022/01/07 00:53:20;;;;;;;7.97;2.65;;;11.00;76.40;;;;;;5013950;28;20068;-65
2022/01/07 00:55:45;;;;;;;6.47;2.58;;;11.00;76.50;;;;;;5013646;28;20109;-65
2022/01/07 00:58:11;;;;;;;6.00;2.45;;;10.90;77.00;;;;;;5013685;28;20048;-65
2022/01/07 01:00:37;;;;;;;8.38;2.63;;;10.90;77.50;;;;;;5013710;28;20037;-66
2022/01/07 01:03:03;;;;;;;8.38;2.97;;;10.90;78.30;;;;;;5013411;28;20029;-65
2022/01/07 01:05:29;;;;;;;7.55;2.80;;;10.90;78.20;;;;;;5013591;28;20021;-65
2022/01/07 01:07:55;;;;;;;8.85;2.75;;;10.90;78.60;;;;;;5013558;28;20084;-65
2022/01/07 01:10:24;;;;;;;6.90;3.20;;;10.90;78.60;;;;;;5012220;28;20112;-65
2022/01/07 01:12:50;;;;;;;4.88;2.42;;;10.90;79.20;;;;;;5013706;28;20076;-65
2022/01/07 01:15:20;;;;;;;7.93;3.40;;;10.80;79.50;;;;;;5013646;28;20032;-65
2022/01/07 01:17:46;;;;;;;10.10;3.63;;;10.80;79.70;;;;;;5013434;28;20440;-65
2022/01/07 01:20:12;;;;;;;7.47;2.22;;;10.80;80.20;;;;;;5013418;28;20479;-64
2022/01/07 01:22:39;;;;;;;8.52;3.28;;;10.80;80.30;;;;;;5013399;28;20060;-65
2022/01/07 01:25:06;;;;;;;7.45;3.13;;;10.80;80.50;;;;;;5013478;28;20384;-65
2022/01/07 01:27:32;;;;;;;8.52;3.13;;;10.70;80.70;;;;;;5013314;28;20076;-65
2022/01/07 01:29:57;;;;;;;10.13;2.60;;;10.70;81.00;;;;;;5012135;28;20037;-65
2022/01/07 01:32:23;;;;;;;7.43;3.20;;;10.70;81.10;;;;;;5013085;28;20442;-65
2022/01/07 01:34:48;;;;;;;10.05;3.47;;;10.70;81.50;;;;;;5013143;28;20029;-65
2022/01/07 01:37:14;;;;;;;7.43;3.35;;;10.70;81.70;;;;;;5012905;28;20467;-65
2022/01/07 01:39:40;;;;;;;10.27;3.53;;;10.70;81.80;;;;;;5013330;28;20080;-65
2022/01/07 01:42:06;;;;;;;9.73;3.15;;;10.60;82.20;;;;;;5013206;28;20044;-65
2022/01/07 01:44:31;;;;;;;9.80;3.78;;;10.60;82.30;;;;;;5013185;28;20030;-65
2022/01/07 01:46:58;;;;;;;6.30;3.17;;;10.60;82.60;;;;;;5012788;28;20030;-64
2022/01/07 01:49:24;;;;;;;8.10;3.45;;;10.60;82.90;;;;;;5013054;28;20053;-65
2022/01/07 01:51:49;;;;;;;9.38;3.00;;;10.50;83.00;;;;;;5013154;28;20084;-62
2022/01/07 01:54:16;;;;;;;7.80;2.95;;;10.50;83.20;;;;;;5013202;28;20041;-65
2022/01/07 01:56:41;;;;;;;7.75;3.63;;;10.60;83.30;;;;;;5013244;28;20026;-63
2022/01/07 01:59:08;;;;;;;7.32;3.10;;;10.60;83.20;;;;;;5013467;28;20036;-64
2022/01/07 02:01:35;;;;;;;6.43;3.78;;;10.60;83.50;;;;;;5012646;28;20022;-63
2022/01/07 02:04:00;;;;;;;5.43;3.58;;;10.60;83.20;;;;;;5013108;28;20038;-65
2022/01/07 02:06:27;;;;;;;7.85;3.90;;;10.60;83.50;;;;;;5013078;28;20076;-65
2022/01/07 02:08:52;;;;;;;5.72;3.92;;;10.50;83.80;;;;;;5013119;28;20041;-64
2022/01/07 02:11:19;;;;;;;5.93;3.08;;;10.50;84.00;;;;;;5013105;28;20029;-64
2022/01/07 02:13:47;;;;;;;6.28;3.88;;;10.50;84.30;;;;;;5011761;28;20029;-65
2022/01/07 02:16:13;;;;;;;8.38;3.90;;;10.40;84.40;;;;;;5011506;28;20053;-65
2022/01/07 02:18:42;;;;;;;7.80;4.20;;;10.40;84.70;;;;;;5012977;28;20467;-64
2022/01/07 02:21:09;;;;;;;6.53;3.50;;;10.40;84.90;;;;;;5004375;28;20042;-64
2022/01/07 02:23:36;;;;;;;8.57;4.28;;;10.30;85.10;;;;;;4991454;28;20074;-65
2022/01/07 02:26:01;;;;;;;7.15;3.75;;;10.30;85.20;;;;;;4992503;28;20046;-65
2022/01/07 02:28:28;;;;;;;5.95;3.42;;;10.30;85.60;;;;;;4993247;28;20549;-64
2022/01/07 02:30:53;;;;;;;7.97;3.28;;;10.30;85.60;;;;;;4993146;28;20057;-64
2022/01/07 02:33:19;;;;;;;6.70;4.13;;;10.30;85.50;;;;;;4993095;28;20101;-65
2022/01/07 02:35:46;;;;;;;7.72;3.90;;;10.30;85.60;;;;;;4993164;28;20369;-65
2022/01/07 02:38:14;;;;;;;6.85;3.28;;;10.30;85.60;;;;;;4993135;28;20033;-64
2022/01/07 02:40:40;;;;;;;5.90;3.33;;;10.30;85.80;;;;;;4993336;28;20041;-65
2022/01/07 02:43:06;;;;;;;5.90;3.67;;;10.30;85.80;;;;;;4992929;28;20038;-64
2022/01/07 02:45:31;;;;;;;5.25;3.17;;;10.20;86.10;;;;;;4993100;28;20435;-65
2022/01/07 02:47:59;;;;;;;5.10;3.08;;;10.20;86.20;;;;;;4993947;28;20084;-65
2022/01/07 02:50:34;;;;;;;6.63;3.60;;;10.20;86.20;;;;;;4996387;28;20148;-65
2022/01/07 02:53:00;;;;;;;6.93;3.40;;;10.20;86.10;;;;;;4996606;28;20029;-65
2022/01/07 02:55:27;;;;;;;6.15;3.28;;;10.20;86.20;;;;;;4996452;28;20022;-65
2022/01/07 02:57:53;;;;;;;7.00;3.38;;;10.10;86.30;;;;;;4996518;28;20030;-65
2022/01/07 03:00:20;;;;;;;6.55;3.67;;;10.10;86.20;;;;;;4995847;28;20027;-65
2022/01/07 03:02:47;;;;;;;8.90;3.92;;;10.20;86.50;;;;;;4996265;28;20113;-65
2022/01/07 03:05:13;;;;;;;6.97;4.00;;;10.20;86.90;;;;;;4996293;28;20026;-65
2022/01/07 03:07:39;;;;;;;5.82;3.88;;;10.20;86.20;;;;;;4996520;28;20101;-65
2022/01/07 03:10:06;;;;;;;5.85;3.50;;;10.20;86.30;;;;;;4996084;28;20121;-65
2022/01/07 03:12:32;;;;;;;6.10;3.58;;;10.10;86.40;;;;;;4995991;28;20145;-65
2022/01/07 03:14:58;;;;;;;5.30;3.63;;;10.10;86.50;;;;;;4995919;28;20038;-65
2022/01/07 03:17:23;;;;;;;5.03;3.65;;;10.10;86.50;;;;;;4995952;28;20384;-65
2022/01/07 03:19:49;;;;;;;6.07;3.53;;;10.10;86.50;;;;;;4995943;28;20038;-66
2022/01/07 03:22:14;;;;;;;7.05;3.65;;;10.10;86.60;;;;;;4996013;28;20057;-65
2022/01/07 03:24:40;;;;;;;5.07;3.67;;;10.10;86.80;;;;;;4995823;28;20029;-65
2022/01/07 03:27:07;;;;;;;8.15;3.78;;;10.10;86.80;;;;;;4995998;28;20061;-66
2022/01/07 03:29:34;;;;;;;6.45;3.92;;;10.10;86.90;;;;;;4995638;28;20073;-64
2022/01/07 03:31:59;;;;;;;10.70;4.43;;;10.10;87.00;;;;;;4995778;28;20023;-65
2022/01/07 03:34:25;;;;;;;7.65;4.20;;;10.20;87.10;;;;;;4995662;28;20050;-65
2022/01/07 03:36:50;;;;;;;8.20;3.95;;;10.10;87.20;;;;;;4995822;28;20097;-65
2022/01/07 03:39:16;;;;;;;7.43;4.10;;;10.10;87.20;;;;;;4995507;28;20092;-63
2022/01/07 03:41:42;;;;;;;8.70;4.55;;;10.10;87.30;;;;;;4995382;28;20023;-65
2022/01/07 03:44:07;;;;;;;7.07;4.28;;;10.10;87.20;;;;;;4995394;28;20484;-65
2022/01/07 03:46:33;;;;;;;9.68;4.38;;;10.10;87.30;;;;;;4995595;28;20105;-65
2022/01/07 03:48:58;;;;;;;6.50;4.13;;;10.10;87.40;;;;;;4995281;28;20084;-65
2022/01/07 03:51:24;;;;;;;10.05;5.40;;;10.10;87.30;;;;;;4995307;28;20030;-64
2022/01/07 03:53:49;;;;;;;6.13;4.10;;;10.10;87.20;;;;;;4995419;28;20022;-65
2022/01/07 03:56:18;;;;;;;9.57;4.13;;;10.10;87.40;;;;;;4995083;28;20042;-65
2022/01/07 03:58:45;;;;;;;10.23;4.85;;;10.10;87.50;;;;;;4995089;28;20045;-65
2022/01/07 04:01:10;;;;;;;6.63;4.28;;;10.10;87.70;;;;;;4995129;28;20038;-65
2022/01/07 04:03:36;;;;;;;5.78;4.30;;;10.10;87.80;;;;;;4995042;28;20038;-65
2022/01/07 04:06:01;;;;;;;8.93;4.55;;;10.10;87.80;;;;;;4995181;28;20033;-65
2022/01/07 04:08:27;;;;;;;8.48;4.25;;;10.10;87.90;;;;;;4995060;28;20112;-65
2022/01/07 04:10:53;;;;;;;13.23;4.38;;;10.10;88.00;;;;;;4994648;28;20390;-65
2022/01/07 04:13:18;;;;;;;8.07;4.30;;;10.10;88.10;;;;;;4994980;28;20443;-65
2022/01/07 04:15:44;;;;;;;9.07;4.60;;;10.10;88.00;;;;;;4994846;28;20061;-65
2022/01/07 04:18:10;;;;;;;8.18;4.00;;;10.10;88.00;;;;;;4995044;28;20046;-65
2022/01/07 04:20:36;;;;;;;7.40;3.97;;;10.00;88.00;;;;;;4994787;28;20479;-66
2022/01/07 04:23:03;;;;;;;6.55;3.00;;;10.10;88.60;;;;;;5009614;28;20062;-66
2022/01/07 04:25:29;;;;;;;5.18;2.95;;;10.30;88.50;;;;;;4994506;28;20014;-66
2022/01/07 04:28:05;;;;;;;5.68;3.35;;;10.50;87.40;;;;;;4994729;28;20105;-66
2022/01/07 04:30:33;;;;;;;6.10;3.05;;;10.70;86.80;;;;;;4994367;28;20018;-65
2022/01/07 04:33:01;;;;;;;6.30;3.05;;;10.70;86.50;;;;;;4994787;28;20436;-66
2022/01/07 04:35:27;;;;;;;7.07;2.95;;;10.80;86.10;;;;;;4994456;28;20055;-65
2022/01/07 04:37:53;;;;;;;6.03;2.90;;;10.90;86.00;;;;;;4994510;28;20494;-66
2022/01/07 04:40:19;;;;;;;6.47;2.75;;;10.90;85.90;;;;;;4994237;28;20022;-66
2022/01/07 04:42:45;;;;;;;9.18;3.05;;;10.90;85.60;;;;;;4994803;28;20030;-66
2022/01/07 04:45:12;;;;;;;5.45;3.03;;;10.90;85.50;;;;;;4994377;28;20468;-66
2022/01/07 04:47:38;;;;;;;10.90;3.33;;;11.00;85.60;;;;;;4994222;28;20035;-66
2022/01/07 04:50:07;;;;;;;8.15;2.83;;;11.00;85.50;;;;;;4994144;28;20022;-66
2022/01/07 04:52:32;;;;;;;5.45;2.58;;;11.00;85.20;;;;;;4994413;28;20033;-66
2022/01/07 04:54:58;;;;;;;7.40;2.95;;;11.00;85.20;;;;;;4994192;28;20023;-66
2022/01/07 04:57:23;;;;;;;8.07;3.00;;;11.00;85.30;;;;;;4994030;28;20026;-66
2022/01/07 04:59:49;;;;;;;9.13;2.55;;;11.00;85.20;;;;;;4994304;28;20023;-65
2022/01/07 05:02:14;;;;;;;6.07;3.33;;;11.00;85.20;;;;;;4993940;28;20042;-66
2022/01/07 05:04:40;;;;;;;5.88;2.50;;;11.00;85.10;;;;;;4994142;28;20468;-65
2022/01/07 05:07:06;;;;;;;4.90;2.50;;;11.00;85.10;;;;;;4994154;28;20392;-65
2022/01/07 05:09:31;;;;;;;7.65;2.63;;;11.00;85.00;;;;;;4993712;28;20022;-66
2022/01/07 05:11:57;;;;;;;7.32;2.78;;;11.00;84.90;;;;;;4993166;28;20499;-66
2022/01/07 05:14:22;;;;;;;5.30;2.40;;;11.10;85.00;;;;;;4993879;28;20030;-66
2022/01/07 05:16:48;;;;;;;6.50;2.78;;;11.00;85.00;;;;;;4994151;28;20080;-66
2022/01/07 05:19:13;;;;;;;7.18;2.70;;;11.00;84.90;;;;;;4994146;28;20483;-66
2022/01/07 05:21:40;;;;;;;8.05;2.60;;;11.10;84.90;;;;;;4993632;28;20030;-66
2022/01/07 05:24:06;;;;;;;5.22;2.28;;;11.00;84.90;;;;;;4993703;28;20483;-66
2022/01/07 05:26:32;;;;;;;7.63;2.60;;;11.00;85.10;;;;;;4993712;28;20027;-65
2022/01/07 05:28:58;;;;;;;6.32;2.13;;;11.00;85.10;;;;;;4993665;28;20042;-65
2022/01/07 05:31:24;;;;;;;7.93;2.60;;;11.00;85.20;;;;;;4993603;28;20088;-66
2022/01/07 05:33:51;;;;;;;7.68;2.58;;;11.00;85.10;;;;;;4994011;28;20037;-65
2022/01/07 05:36:18;;;;;;;6.03;2.35;;;11.00;85.10;;;;;;4993672;28;20069;-66
2022/01/07 05:38:43;;;;;;;7.38;2.58;;;11.00;85.00;;;;;;4993524;28;20085;-66
2022/01/07 05:41:09;;;;;;;4.75;2.05;;;11.00;85.10;;;;;;4993602;28;20034;-66
2022/01/07 05:43:34;;;;;;;5.03;2.30;;;11.00;85.10;;;;;;4993661;28;20034;-66
2022/01/07 05:46:00;;;;;;;4.43;2.38;;;11.00;85.00;;;;;;4993551;28;20035;-66
2022/01/07 05:48:26;;;;;;;6.07;2.25;;;11.00;85.10;;;;;;4993391;28;20034;-66
2022/01/07 05:50:51;;;;;;;6.55;2.58;;;11.00;85.20;;;;;;4993730;28;20483;-66
2022/01/07 05:53:17;;;;;;;7.25;2.30;;;11.00;85.20;;;;;;4993356;28;20018;-65
2022/01/07 05:55:43;;;;;;;6.50;2.40;;;11.00;85.10;;;;;;4993614;28;20034;-65
2022/01/07 05:58:08;;;;;;;5.55;2.08;;;11.00;85.10;;;;;;4993521;28;20384;-66
2022/01/07 06:00:34;;;;;;;6.43;2.38;;;11.00;85.10;;;;;;4995417;28;20030;-65
2022/01/07 06:03:00;;;;;;;4.85;2.33;;;11.00;85.20;;;;;;5008278;28;20549;-65
2022/01/07 06:05:25;;;;;;;5.45;2.28;;;11.00;85.20;;;;;;5012410;28;20018;-65
2022/01/07 06:07:51;;;;;;;7.22;2.60;;;11.00;85.10;;;;;;5012303;28;20471;-65
2022/01/07 06:10:17;;;;;;;7.57;2.20;;;11.00;85.20;;;;;;5013036;28;20080;-65
2022/01/07 06:12:43;;;;;;;3.35;2.08;;;11.00;85.50;;;;;;5012780;28;20494;-66
2022/01/07 06:15:09;;;;;;;5.25;2.40;;;11.00;85.50;;;;;;5012842;28;20029;-65
2022/01/07 06:17:35;;;;;;;5.70;2.25;;;11.00;85.40;;;;;;5012885;28;20116;-65
2022/01/07 06:20:00;;;;;;;6.28;2.28;;;11.00;85.40;;;;;;5013238;28;20064;-65
2022/01/07 06:22:26;;;;;;;6.38;2.40;;;11.10;85.40;;;;;;5014417;28;20062;-66
2022/01/07 06:24:51;;;;;;;7.43;2.25;;;11.10;85.40;;;;;;5016800;28;20045;-66
2022/01/07 06:27:20;;;;;;;8.00;2.50;;;11.10;85.30;;;;;;5016127;28;20030;-66
2022/01/07 06:29:46;;;;;;;6.55;2.42;;;11.00;85.20;;;;;;5016632;28;20053;-66
2022/01/07 06:32:11;;;;;;;4.72;2.25;;;11.10;85.30;;;;;;5016491;28;20057;-65
2022/01/07 06:34:37;;;;;;;10.88;2.85;;;11.10;85.30;;;;;;5016416;28;20650;-66
2022/01/07 06:37:03;;;;;;;8.15;2.40;;;11.10;85.20;;;;;;5016275;28;20025;-65
2022/01/07 06:39:29;;;;;;;4.88;2.33;;;11.10;85.20;;;;;;5016449;28;20379;-65
2022/01/07 06:41:57;;;;;;;8.07;2.55;;;11.10;85.20;;;;;;5016410;28;20033;-65
2022/01/07 06:44:23;;;;;;;8.63;2.88;;;11.10;85.20;;;;;;5016462;28;20029;-66
2022/01/07 06:46:48;;;;;;;8.50;2.60;;;11.00;85.10;;;;;;5016336;28;20064;-65
2022/01/07 06:49:14;;;;;;;6.90;3.10;;;11.00;85.30;;;;;;5016013;28;20191;-66
2022/01/07 06:51:41;;;;;;;10.75;2.97;;;11.00;85.20;;;;;;5015914;28;20041;-65
2022/01/07 06:54:10;;;;;;;5.97;2.00;;;11.00;85.30;;;;;;5016058;28;20395;-66
2022/01/07 06:56:43;;;;;;;6.40;2.40;;;11.00;85.20;;;;;;5016051;28;20033;-66
2022/01/07 06:59:08;;;;;;;;;;;11.00;85.20;;;;;;5016350;28;20614;-65
2022/01/07 07:01:34;;;;;;;5.00;1.88;;;11.00;85.40;;;;;;5016156;28;19948;-66
2022/01/07 07:04:00;;;;;;;4.25;2.60;;;11.00;85.70;;;;;;5015763;28;20499;-65
2022/01/07 07:06:26;;;;;;;6.47;2.40;;;11.00;85.60;;;;;;5015700;28;20065;-66
2022/01/07 07:08:52;;;;;;;6.25;2.20;;;11.00;85.50;;;;;;5015705;28;20033;-66
2022/01/07 07:11:17;;;;;;;7.18;2.78;;;11.00;85.70;;;;;;5016049;28;20022;-66
2022/01/07 07:13:43;;;;;;;6.40;2.92;;;11.00;85.50;;;;;;5015615;28;20080;-66
2022/01/07 07:16:08;;;;;;;9.75;2.60;;;11.00;85.60;;;;;;5015862;28;20026;-66
2022/01/07 07:18:34;;;;;;;6.45;2.58;;;11.00;85.70;;;;;;5014400;28;20145;-65
2022/01/07 07:20:59;;;;;;;4.85;2.20;;;11.00;85.60;;;;;;5015370;28;20022;-66
2022/01/07 07:23:25;;;;;;;7.85;2.85;;;11.00;85.60;;;;;;5015376;28;20056;-65
2022/01/07 07:25:51;;;;;;;6.07;2.70;;;11.00;85.40;;;;;;5015432;28;20029;-65
2022/01/07 07:28:18;;;;;;;8.32;2.72;;;10.90;85.70;;;;;;5015695;28;20026;-65
2022/01/07 07:30:44;;;;;;;5.90;3.05;;;10.80;86.00;;;;;;5015423;28;20026;-65
2022/01/07 07:38:38;;;;;;;9.23;2.58;;;10.60;87.10;;;;;;5015122;28;20044;-61
2022/01/07 07:41:06;;;;;;;8.38;3.17;;;10.50;87.40;;;;;;5014358;28;20026;-69
2022/01/07 07:43:32;;;;;;;6.82;2.53;;;10.60;87.30;;;;;;5013360;28;20034;-69
2022/01/07 07:45:58;;;;;;;5.97;2.67;;;10.60;87.20;;;;;;5014681;28;20046;-71
2022/01/07 07:48:24;;;;;;;6.00;2.08;;;10.60;87.40;;;;;;5014576;28;20533;-71
2022/01/07 07:50:49;;;;;;;4.60;1.88;;;10.80;88.70;;;;;;5014937;28;20109;-66
2022/01/07 07:53:15;;;;;;;3.28;1.65;;;10.90;87.70;;;;;;5015029;28;20084;-69
2022/01/07 07:55:41;;;;;;;6.00;2.10;;;11.00;86.90;;;;;;5014879;28;20415;-70
2022/01/07 07:58:07;;;;;;;4.28;1.77;;;11.10;87.10;;;;;;5013676;28;20108;-70
2022/01/07 08:00:32;;;;;;;5.72;1.70;;;11.10;87.00;;;;;;5010420;28;20494;-70
2022/01/07 08:02:58;;;;;;;6.18;1.90;;;11.20;87.00;;;;;;5011621;28;20504;-63
2022/01/07 08:05:24;;;;;;;6.95;2.05;;;11.20;86.90;;;;;;5010704;28;20028;-70
2022/01/07 08:07:50;;;;;;;7.05;2.65;;;11.30;86.80;;;;;;5013341;28;20022;-62
2022/01/07 08:10:22;;;;;;;4.88;1.83;;;11.40;86.80;;;;;;5013077;28;20383;-65
2022/01/07 08:12:54;;;;;;;14.23;1.92;;;11.40;86.80;;;;;;5013321;28;20443;-68
2022/01/07 08:18:04;;;;;;;11.38;2.13;;;11.50;86.60;;;;;;5014181;28;20049;-69
2022/01/07 08:20:29;;;;;;;8.70;2.10;;;11.50;86.50;;;;;;5014136;28;20029;-75
2022/01/07 08:22:56;;;;;;;10.75;1.80;;;11.50;86.40;;;;;;5014242;28;20037;-66
2022/01/07 08:25:23;;;;;;;6.03;2.15;;;11.50;86.30;;;;;;5014196;28;20460;-67
2022/01/07 08:27:50;;;;;;;6.55;2.05;;;11.60;86.20;;;;;;5012414;28;20034;-70
2022/01/07 08:30:23;;;;;;;3.97;1.60;;;11.60;86.00;;;;;;5014038;28;20018;-69
2022/01/07 08:35:36;;;;;;;11.57;2.13;;;11.70;85.90;;;;;;5014306;28;20092;-66
2022/01/07 08:38:02;;;;;;;7.50;1.95;;;11.70;85.80;;;;;;5013974;28;20368;-68
2022/01/07 08:40:28;;;;;;;4.90;1.70;;;11.80;85.60;;;;;;5012390;28;20498;-71
2022/01/07 08:42:53;;;;;;;9.65;2.38;;;11.70;85.30;;;;;;5011448;28;20050;-71
2022/01/07 08:45:19;;;;;;;12.95;1.63;;;11.80;85.50;;;;;;5011998;28;20060;-72
2022/01/07 08:47:45;;;;;;;4.68;1.65;;;11.80;85.50;;;;;;5013182;28;20061;-71
2022/01/07 08:50:10;;;;;;;4.70;1.67;;;11.80;85.30;;;;;;5014171;28;20034;-71
2022/01/07 08:52:36;;;;;;;3.10;1.58;;;11.80;82.80;;;;;;5013632;28;20428;-69
2022/01/07 08:55:01;;;;;;;3.65;1.48;;;11.70;83.90;;;;;;5013470;28;20030;-71
2022/01/07 08:57:27;;;;;;;7.63;1.88;;;11.60;84.00;;;;;;5013722;28;20083;-70
2022/01/07 08:59:52;;;;;;;5.30;1.73;;;11.60;83.20;;;;;;5012503;28;20080;-70
2022/01/07 09:02:18;;;;;;;7.22;2.13;;;11.50;83.00;;;;;;5012203;28;20121;-71
2022/01/07 09:04:44;;;;;;;3.97;1.40;;;11.40;82.90;;;;;;5013683;28;20026;-70
2022/01/07 09:07:09;;;;;;;5.70;1.80;;;11.30;83.20;;;;;;5012854;28;20038;-67
2022/01/07 09:09:35;;;;;;;7.18;2.35;;;11.20;83.60;;;;;;5012786;28;20097;-65
2022/01/07 09:12:01;;;;;;;7.43;1.65;;;11.10;83.60;;;;;;5013242;28;20483;-70
2022/01/07 09:14:26;;;;;;;4.25;1.30;;;11.20;86.20;;;;;;5013027;28;20043;-71
2022/01/07 09:16:52;;;;;;;7.20;1.38;;;11.20;88.20;;;;;;5017489;28;20087;-71
2022/01/07 09:19:18;;;;;;;5.28;1.60;;;11.30;87.20;;;;;;5011886;28;20030;-67
2022/01/07 09:21:44;;;;;;;8.20;2.47;;;11.40;87.20;;;;;;5013297;28;20034;-70
2022/01/07 09:24:09;;;;;;;6.65;1.45;;;11.50;87.90;;;;;;5008141;28;20038;-71
2022/01/07 09:26:35;;;;;;;3.58;0.98;;;11.50;87.10;;;;;;5030558;28;20028;-70
2022/01/07 09:29:00;;;;;;;5.18;1.25;;;11.60;87.40;;;;;;5027923;28;20475;-68
2022/01/07 09:31:27;;;;;;;5.22;1.95;;;11.60;87.50;;;;;;5022127;28;20523;-70
2022/01/07 09:33:52;;;;;;;5.22;1.25;;;11.70;87.40;;;;;;5013061;28;20037;-70
2022/01/07 09:36:18;;;;;;;5.40;1.63;;;11.70;87.50;;;;;;5012376;28;20030;-70
2022/01/07 09:38:43;;;;;;;5.40;1.15;;;11.70;87.40;;;;;;5013069;28;20028;-70
2022/01/07 09:41:09;;;;;;;8.02;2.05;;;11.70;87.20;;;;;;5012948;28;20026;-70
2022/01/07 09:43:35;;;;;;;4.38;1.08;;;11.80;87.00;;;;;;5010011;28;20474;-71
2022/01/07 09:46:00;;;;;;;5.03;1.48;;;11.80;87.10;;;;;;5017464;28;20421;-71
2022/01/07 09:48:26;;;;;;;5.38;1.40;;;11.90;86.90;;;;;;5015251;28;20038;-68
2022/01/07 09:50:52;;;;;;;4.72;1.30;;;11.90;87.10;;;;;;5010178;28;20477;-70
2022/01/07 09:53:18;;;;;;;5.38;1.48;;;11.90;87.00;;;;;;5012904;28;20071;-68
2022/01/07 09:55:45;;;;;;;10.65;2.53;;;12.00;87.30;;;;;;5027943;28;20048;-69
2022/01/07 09:58:13;;;;;;;7.28;1.77;;;12.00;86.80;;;;;;5016071;28;20024;-66
2022/01/07 10:00:41;;;;;;;6.28;2.50;;;12.00;86.80;;;;;;5020692;28;20061;-66
2022/01/07 10:03:09;;;;;;;7.95;2.72;;;12.00;86.30;;;;;;5016088;28;20041;-66
2022/01/07 10:05:49;;;;;;;9.98;2.17;;;11.90;85.70;;;;;;4997520;28;20026;-68
2022/01/07 10:08:19;;;;;;;7.40;2.25;;;11.80;84.30;;;;;;5008651;28;20033;-67
2022/01/07 10:10:45;;;;;;;7.10;2.67;;;11.80;84.80;;;;;;5010649;28;20029;-65
2022/01/07 10:13:11;;;;;;;6.45;3.20;;;11.70;85.10;;;;;;5008896;28;20018;-59
2022/01/07 10:15:38;;;;;;;7.15;3.25;;;11.60;85.90;;;;;;5006380;28;20057;-67
2022/01/07 10:18:06;;;;;;;10.20;3.00;;;11.60;85.70;;;;;;5008326;28;20029;-62
2022/01/07 10:20:38;;;;;;;7.05;2.75;;;11.60;86.20;;;;;;5007468;28;21050;-69
2022/01/07 10:23:08;;;;;;;10.20;3.60;;;11.50;86.50;;;;;;4999266;28;20045;-60
2022/01/07 10:25:37;;;;;;;7.13;2.85;;;11.50;86.90;;;;;;5009977;28;20076;-64
2022/01/07 10:28:08;;;;;;;9.98;3.10;;;11.50;87.40;;;;;;5012101;28;20469;-67
2022/01/07 10:30:44;;;;;;;10.93;3.53;;;11.40;87.60;;;;;;5013185;28;20030;-69
2022/01/07 10:33:20;;;;;;;9.02;2.88;;;11.40;87.90;;;;;;5012958;28;20056;-69
2022/01/07 10:35:47;;;;;;;9.10;2.53;;;11.40;87.90;;;;;;5013720;28;20483;-69
2022/01/07 10:38:19;;;;;;;9.82;2.67;;;11.50;87.80;;;;;;5012609;28;20125;-68
2022/01/07 10:40:47;;;;;;;10.38;2.95;;;11.50;87.70;;;;;;5010392;28;20057;-69
2022/01/07 10:43:21;;;;;;;13.55;3.30;;;11.50;87.50;;;;;;5015360;28;20392;-69
2022/01/07 10:45:55;;;;;;;9.05;2.78;;;11.40;87.90;;;;;;5010609;28;20732;-68
2022/01/07 10:48:25;;;;;;;6.57;2.92;;;11.50;87.80;;;;;;5009826;28;20048;-65
2022/01/07 10:50:52;;;;;;;10.43;2.75;;;11.40;87.80;;;;;;5009656;28;20121;-68
2022/01/07 10:53:23;;;;;;;7.53;3.15;;;11.50;88.00;;;;;;5013843;28;20463;-68
2022/01/07 10:56:01;;;;;;;9.40;2.42;;;11.40;87.80;;;;;;5011602;28;20030;-68
2022/01/07 10:58:27;;;;;;;5.75;2.58;;;11.40;87.30;;;;;;5012378;28;20026;-68
2022/01/07 11:00:53;;;;;;;9.10;3.15;;;11.40;87.80;;;;;;5017586;28;20021;-68
2022/01/07 11:03:19;;;;;;;8.13;2.53;;;11.30;87.50;;;;;;5012525;28;20050;-68
2022/01/07 11:05:45;;;;;;;6.35;2.55;;;11.30;87.80;;;;;;5012282;28;20079;-68
2022/01/07 11:08:14;;;;;;;7.93;2.13;;;11.30;87.90;;;;;;5010699;28;20025;-63
2022/01/07 11:10:41;;;;;;;8.77;2.35;;;11.30;88.60;;;;;;5011498;28;20025;-67
2022/01/07 11:13:08;;;;;;;9.02;2.30;;;11.40;89.60;;;;;;5028197;28;20057;-67
2022/01/07 11:15:35;;;;;;;6.38;2.50;;;11.50;90.00;;;;;;5017649;28;20076;-67
2022/01/07 11:18:00;;;;;;;9.52;1.65;;;11.70;90.30;;;;;;5013068;28;20022;-66
2022/01/07 11:20:26;;;;;;;8.85;1.85;;;11.80;88.50;;;;;;5014698;28;20364;-67
2022/01/07 11:22:52;;;;;;;4.32;1.52;;;12.00;86.80;;;;;;5014974;28;20545;-67
2022/01/07 11:25:18;;;;;;;7.50;1.90;;;12.00;85.90;;;;;;5014711;28;20097;-66
2022/01/07 11:27:49;;;;;;;6.22;1.58;;;12.00;85.10;;;;;;5014413;28;20022;-68
2022/01/07 11:30:18;;;;;;;4.80;1.88;;;12.10;84.40;;;;;;5013902;28;20022;-67
2022/01/07 11:32:51;;;;;;;6.50;1.80;;;12.20;84.10;;;;;;5018153;28;20025;-67
2022/01/07 11:35:16;;;;;;;6.07;1.50;;;12.20;84.40;;;;;;5032363;28;20029;-68
2022/01/07 11:37:48;;;;;;;7.10;1.73;;;12.10;84.60;;;;;;5015270;28;20021;-67
2022/01/07 11:40:44;;;;;;;6.28;1.75;;;12.10;85.00;;;;;;5014587;28;20034;-68
2022/01/07 11:43:18;;;;;;;6.22;2.47;;;12.10;85.20;;;;;;5014452;28;20037;-68
2022/01/07 11:45:45;;;;;;;6.68;2.00;;;12.10;85.40;;;;;;5013970;28;20056;-68
2022/01/07 11:48:13;;;;;;;6.97;1.58;;;12.10;86.10;;;;;;5013911;28;20088;-69
2022/01/07 11:51:08;;;;;;;8.27;2.17;;;12.10;86.20;;;;;;5008234;28;20030;-69
2022/01/07 11:53:40;;;;;;;8.27;2.08;;;12.10;86.50;;;;;;5008149;28;20092;-67
2022/01/07 11:56:13;;;;;;;6.95;2.20;;;12.10;87.20;;;;;;5010599;28;20514;-62
2022/01/07 11:58:45;;;;;;;8.60;2.70;;;12.00;86.00;;;;;;5010747;28;20029;-66
2022/01/07 12:01:29;;;;;;;5.97;2.03;;;12.00;85.70;;;;;;5019220;28;20017;-70
2022/01/07 12:03:57;;;;;;;7.60;2.20;;;12.00;86.00;;;;;;5015850;28;20033;-67
2022/01/07 12:06:29;;;;;;;5.50;2.03;;;12.00;86.90;;;;;;5018704;28;20048;-67
2022/01/07 12:09:09;;;;;;;4.80;2.20;;;12.10;87.60;;;;;;5015666;28;20038;-67
2022/01/07 12:11:37;;;;;;;8.27;1.98;;;12.10;87.00;;;;;;5011576;28;20026;-68
2022/01/07 12:14:07;;;;;;;10.23;2.03;;;12.00;85.70;;;;;;5006529;28;20467;-67
2022/01/07 12:16:34;;;;;;;5.30;1.77;;;12.00;87.50;;;;;;5007412;28;20396;-68
2022/01/07 12:19:11;;;;;;;7.18;2.17;;;12.10;87.70;;;;;;5012942;28;20014;-68
2022/01/07 12:21:41;;;;;;;6.82;1.85;;;12.10;87.70;;;;;;5009054;28;20483;-71
2022/01/07 12:24:08;;;;;;;6.68;2.00;;;12.10;88.20;;;;;;5012328;28;20065;-68
2022/01/07 12:26:35;;;;;;;7.20;1.90;;;12.10;87.90;;;;;;5010551;28;20136;-68
2022/01/07 12:29:00;;;;;;;9.18;1.88;;;12.20;89.20;;;;;;5006158;28;20108;-68
2022/01/07 12:31:26;;;;;;;8.60;1.95;;;12.20;89.20;;;;;;5022081;28;20041;-67
2022/01/07 12:33:57;;;;;;;7.32;2.05;;;12.20;88.10;;;;;;5021321;28;20037;-67
2022/01/07 12:36:31;;;;;;;4.33;1.30;;;12.20;88.40;;;;;;5007998;28;20030;-67
2022/01/07 12:39:08;;;;;;;10.80;1.80;;;12.20;89.20;;;;;;5010389;28;20049;-67
2022/01/07 12:41:37;;;;;;;4.90;1.27;;;12.30;89.80;;;;;;5006899;28;20100;-64
2022/01/07 12:44:08;;;;;;;11.38;2.25;;;12.40;90.70;;;;;;5012505;28;20025;-68
2022/01/07 12:46:34;;;;;;;10.73;1.58;;;12.60;90.60;;;;;;5004841;28;20489;-66
2022/01/07 12:49:00;;;;;;;7.68;1.65;;;12.70;90.40;;;;;;5019404;28;20076;-67
2022/01/07 12:51:26;;;;;;;11.73;2.92;;;12.70;90.40;;;;;;5017153;28;20061;-68
2022/01/07 12:53:56;;;;;;;7.60;2.05;;;12.90;90.40;;;;;;5012586;28;20033;-68
2022/01/07 12:56:32;;;;;;;7.68;2.00;;;13.00;90.00;;;;;;5012808;28;20036;-66